Time;durP1;ratioP1;P1;durP2;ratioP2;P2;SDS_P1;SDS_P2;PMS_P1;PMS_P2;Temp;Humidity;BMP_temperature;BMP_pressure;BME280_temperature;BME280_humidity;BME280_pressure;Samples;Min_cycle;Max_cycle;Signal;HPM_P1;HPM_P2
2021/12/26 00:00:28;;;;;;;3.20;1.20;;;-3.80;99.90;;;;;;5060260;28;20461;-69
2021/12/26 00:02:54;;;;;;;3.92;1.33;;;-3.90;99.90;;;;;;5050607;28;20041;-68
2021/12/26 00:05:21;;;;;;;6.10;1.83;;;-3.90;99.90;;;;;;5065177;28;20124;-68
2021/12/26 00:07:47;;;;;;;4.47;1.70;;;-3.90;99.90;;;;;;5064525;28;20066;-68
2021/12/26 00:10:14;;;;;;;6.55;1.75;;;-3.90;99.90;;;;;;5053893;28;20349;-68
2021/12/26 00:12:40;;;;;;;5.47;1.73;;;-3.80;99.90;;;;;;5060737;28;20522;-68
2021/12/26 00:15:06;;;;;;;5.85;1.50;;;-3.80;99.90;;;;;;5061079;28;20033;-68
2021/12/26 00:17:32;;;;;;;4.43;1.58;;;-3.80;99.90;;;;;;5055983;28;20379;-66
2021/12/26 00:19:58;;;;;;;3.60;1.35;;;-3.90;99.90;;;;;;5065045;28;20041;-67
2021/12/26 00:22:24;;;;;;;6.07;1.50;;;-3.90;99.40;;;;;;5058412;28;20586;-67
2021/12/26 00:24:51;;;;;;;5.25;1.70;;;-3.90;99.90;;;;;;5045641;28;20048;-66
2021/12/26 00:27:19;;;;;;;4.50;1.73;;;-4.00;99.90;;;;;;5056272;28;20045;-67
2021/12/26 00:29:45;;;;;;;3.95;1.30;;;-4.00;99.90;;;;;;5058346;28;20499;-68
2021/12/26 00:32:11;;;;;;;3.78;1.52;;;-3.90;99.90;;;;;;5063944;28;20037;-68
2021/12/26 00:34:37;;;;;;;3.30;1.25;;;-3.80;99.90;;;;;;5059469;28;20055;-66
2021/12/26 00:37:07;;;;;;;3.00;1.30;;;-3.80;99.90;;;;;;5062258;28;20041;-67
2021/12/26 00:39:34;;;;;;;3.45;1.52;;;-3.80;99.90;;;;;;5059141;28;20510;-67
2021/12/26 00:41:59;;;;;;;4.40;1.60;;;-3.80;99.90;;;;;;5059270;28;20036;-67
2021/12/26 00:44:25;;;;;;;3.65;1.55;;;-3.80;99.90;;;;;;5054731;28;20051;-67
2021/12/26 00:46:53;;;;;;;3.58;1.33;;;-3.80;99.50;;;;;;5051447;28;20044;-67
2021/12/26 00:49:22;;;;;;;4.13;1.33;;;-3.80;99.90;;;;;;5063012;28;20170;-67
2021/12/26 00:51:49;;;;;;;3.40;1.50;;;-3.80;99.60;;;;;;5042114;28;20120;-67
2021/12/26 00:54:15;;;;;;;2.83;1.48;;;-3.90;99.30;;;;;;5061769;28;20054;-67
2021/12/26 00:56:41;;;;;;;3.63;1.20;;;-3.80;99.90;;;;;;5058573;28;20045;-67
2021/12/26 00:59:06;;;;;;;5.63;1.70;;;-3.90;99.50;;;;;;5059653;28;20060;-67
2021/12/26 01:01:32;;;;;;;3.40;1.48;;;-3.90;98.30;;;;;;5051563;28;20075;-66
2021/12/26 01:03:58;;;;;;;3.65;1.48;;;-3.90;99.20;;;;;;5050841;28;20056;-66
2021/12/26 01:06:24;;;;;;;5.05;1.90;;;-3.90;99.80;;;;;;5059626;28;20041;-66
2021/12/26 01:08:51;;;;;;;2.92;1.10;;;-4.00;98.90;;;;;;5050364;28;20061;-67
2021/12/26 01:11:37;;;;;;;3.13;1.45;;;-3.90;99.50;;;;;;5056135;28;20167;-66
2021/12/26 01:14:06;;;;;;;3.85;1.50;;;-3.90;99.20;;;;;;5068249;28;20048;-66
2021/12/26 01:16:32;;;;;;;3.97;1.40;;;-3.90;98.50;;;;;;5062443;28;20037;-66
2021/12/26 01:19:08;;;;;;;4.28;1.42;;;-3.90;99.20;;;;;;5060074;28;20041;-66
2021/12/26 01:21:34;;;;;;;3.13;1.20;;;-3.90;99.00;;;;;;5062886;28;20679;-66
2021/12/26 01:24:05;;;;;;;4.07;1.42;;;-3.90;98.90;;;;;;5062816;28;20500;-66
2021/12/26 01:26:31;;;;;;;4.70;1.52;;;-3.80;98.50;;;;;;5055801;28;20097;-66
2021/12/26 01:28:57;;;;;;;4.28;1.80;;;-3.80;98.30;;;;;;5062389;28;20437;-66
2021/12/26 01:31:23;;;;;;;4.90;1.73;;;-3.80;98.60;;;;;;5055703;28;20048;-66
2021/12/26 01:33:55;;;;;;;2.88;1.33;;;-3.80;98.30;;;;;;5059919;28;20487;-66
2021/12/26 01:36:22;;;;;;;3.17;1.65;;;-3.80;96.80;;;;;;5063276;28;20052;-66
2021/12/26 01:38:48;;;;;;;4.40;1.70;;;-3.80;97.90;;;;;;5065915;28;20071;-66
2021/12/26 01:41:16;;;;;;;3.58;1.42;;;-3.80;97.90;;;;;;5056398;28;20499;-66
2021/12/26 01:43:45;;;;;;;3.22;1.30;;;-3.80;98.00;;;;;;5049774;28;20133;-66
2021/12/26 01:46:11;;;;;;;3.90;1.35;;;-3.70;98.40;;;;;;5052312;28;20056;-66
2021/12/26 01:48:37;;;;;;;4.18;1.52;;;-3.70;97.70;;;;;;5051595;28;20056;-66
2021/12/26 01:51:03;;;;;;;3.63;1.50;;;-3.80;97.30;;;;;;5051748;28;20052;-66
2021/12/26 01:53:37;;;;;;;4.57;1.55;;;-3.70;97.80;;;;;;5061281;28;20495;-66
2021/12/26 01:56:06;;;;;;;4.03;1.60;;;-3.70;97.20;;;;;;5054435;28;20941;-66
2021/12/26 01:58:32;;;;;;;4.28;1.52;;;-3.70;96.80;;;;;;5064260;28;20052;-66
2021/12/26 02:01:10;;;;;;;3.78;1.40;;;-3.70;96.70;;;;;;5062335;28;20045;-65
2021/12/26 02:03:36;;;;;;;3.67;1.45;;;-3.70;97.10;;;;;;5063403;28;20044;-66
2021/12/26 02:06:04;;;;;;;4.30;1.60;;;-3.80;96.80;;;;;;5054573;28;20492;-66
2021/12/26 02:08:29;;;;;;;4.20;1.73;;;-3.70;97.10;;;;;;5061041;28;20252;-66
2021/12/26 02:10:59;;;;;;;3.85;1.42;;;-3.70;97.10;;;;;;5050477;28;20093;-65
2021/12/26 02:13:25;;;;;;;4.65;1.60;;;-3.70;96.70;;;;;;5059751;28;20072;-65
2021/12/26 02:15:51;;;;;;;4.05;1.40;;;-3.70;97.10;;;;;;5054943;28;20090;-65
2021/12/26 02:18:17;;;;;;;4.03;1.50;;;-3.70;96.90;;;;;;5053197;28;20036;-65
2021/12/26 02:21:12;;;;;;;4.32;1.42;;;-3.70;97.00;;;;;;5050694;28;20423;-65
2021/12/26 02:28:47;;;;;;;4.43;1.60;;;-3.70;97.10;;;;;;5054554;28;20128;-65
2021/12/26 02:31:15;;;;;;;4.03;1.50;;;-3.70;96.50;;;;;;5049779;28;20115;-65
2021/12/26 02:33:40;;;;;;;5.00;1.67;;;-3.70;96.60;;;;;;5050730;28;20468;-65
2021/12/26 02:36:07;;;;;;;3.85;1.60;;;-3.70;96.90;;;;;;5058273;28;20089;-65
2021/12/26 02:38:34;;;;;;;3.45;1.48;;;-3.70;96.90;;;;;;5061410;28;20040;-65
2021/12/26 02:41:00;;;;;;;3.08;1.58;;;-3.70;97.00;;;;;;5049246;28;20091;-65
2021/12/26 02:43:29;;;;;;;3.17;1.50;;;-3.70;97.10;;;;;;5065159;28;20154;-65
2021/12/26 02:45:55;;;;;;;3.58;1.48;;;-3.70;96.50;;;;;;5058864;28;20139;-65
2021/12/26 02:48:21;;;;;;;4.15;1.70;;;-3.70;96.80;;;;;;5065583;28;20230;-65
2021/12/26 02:50:52;;;;;;;3.33;1.45;;;-3.60;97.10;;;;;;5059297;28;20041;-65
2021/12/26 02:53:20;;;;;;;4.18;1.55;;;-3.70;96.50;;;;;;5057622;28;20040;-65
2021/12/26 02:55:50;;;;;;;4.70;1.70;;;-3.70;95.90;;;;;;5057429;28;20136;-65
2021/12/26 02:58:16;;;;;;;4.18;1.50;;;-3.80;96.00;;;;;;5058268;28;20132;-65
2021/12/26 03:00:47;;;;;;;3.60;1.70;;;-3.70;96.90;;;;;;5059518;28;20123;-65
2021/12/26 03:03:13;;;;;;;4.97;1.67;;;-3.70;96.30;;;;;;5056702;28;20058;-65
2021/12/26 03:05:43;;;;;;;7.32;2.50;;;-3.70;96.40;;;;;;5053523;28;20040;-66
2021/12/26 03:08:11;;;;;;;2.97;1.30;;;-3.80;96.00;;;;;;5061489;28;20068;-66
2021/12/26 03:10:39;;;;;;;4.10;1.77;;;-3.80;96.00;;;;;;5053576;28;20084;-66
2021/12/26 03:13:10;;;;;;;3.63;1.50;;;-3.70;96.40;;;;;;5058403;28;20082;-65
2021/12/26 03:15:38;;;;;;;3.25;1.50;;;-3.70;96.40;;;;;;5053219;28;20051;-65
2021/12/26 03:18:05;;;;;;;2.92;1.30;;;-3.70;96.10;;;;;;5058863;28;20037;-65
2021/12/26 03:20:34;;;;;;;3.67;1.77;;;-3.80;94.40;;;;;;5054603;28;20046;-65
2021/12/26 03:23:01;;;;;;;4.15;1.50;;;-3.70;95.70;;;;;;5052656;28;20190;-65
2021/12/26 03:25:28;;;;;;;4.07;1.50;;;-3.70;95.70;;;;;;5049886;28;20056;-65
2021/12/26 03:27:54;;;;;;;4.95;1.50;;;-3.70;95.70;;;;;;5064666;28;20033;-65
2021/12/26 03:30:23;;;;;;;3.67;1.58;;;-3.70;95.00;;;;;;5035159;28;20045;-65
2021/12/26 03:32:49;;;;;;;5.93;2.20;;;-3.70;94.70;;;;;;5060151;28;20051;-65
2021/12/26 03:35:15;;;;;;;2.67;1.30;;;-3.70;95.00;;;;;;5048875;28;20045;-65
2021/12/26 03:37:42;;;;;;;4.30;1.70;;;-3.70;95.50;;;;;;5058453;28;20493;-65
2021/12/26 03:40:09;;;;;;;5.10;1.80;;;-3.80;94.60;;;;;;5056071;28;20056;-65
2021/12/26 03:42:36;;;;;;;3.63;1.70;;;-3.80;95.20;;;;;;5047128;28;20060;-65
2021/12/26 03:45:04;;;;;;;3.33;1.50;;;-3.70;94.40;;;;;;5053783;28;20560;-65
2021/12/26 03:47:31;;;;;;;3.28;1.50;;;-3.70;94.70;;;;;;5051346;28;20044;-65
2021/12/26 03:49:57;;;;;;;4.53;1.90;;;-3.70;95.00;;;;;;5034614;28;20064;-65
2021/12/26 03:52:23;;;;;;;3.42;1.35;;;-3.80;94.90;;;;;;5031322;28;20073;-65
2021/12/26 03:54:49;;;;;;;3.53;1.40;;;-3.80;95.20;;;;;;5034704;28;20053;-65
2021/12/26 03:57:15;;;;;;;4.15;1.90;;;-3.80;95.10;;;;;;5050790;28;20068;-65
2021/12/26 03:59:40;;;;;;;6.05;1.65;;;-3.70;95.20;;;;;;5056887;28;20083;-65
2021/12/26 04:02:07;;;;;;;4.50;1.60;;;-3.80;95.40;;;;;;5050258;28;20407;-65
2021/12/26 04:04:33;;;;;;;3.65;1.48;;;-3.70;95.10;;;;;;5049377;28;20049;-65
2021/12/26 04:06:58;;;;;;;4.20;1.83;;;-3.80;94.40;;;;;;5054827;28;20044;-65
2021/12/26 04:09:24;;;;;;;4.35;1.88;;;-3.80;94.60;;;;;;5053320;28;20061;-65
2021/12/26 04:11:50;;;;;;;3.60;1.67;;;-3.80;95.20;;;;;;5052230;28;20452;-64
2021/12/26 04:14:18;;;;;;;4.70;1.90;;;-3.80;95.50;;;;;;5048838;28;20498;-65
2021/12/26 04:16:43;;;;;;;4.85;1.95;;;-3.80;95.50;;;;;;5055478;28;20049;-65
2021/12/26 04:19:09;;;;;;;3.33;1.77;;;-3.80;95.70;;;;;;5050158;28;20051;-65
2021/12/26 04:21:35;;;;;;;3.83;1.80;;;-3.80;95.10;;;;;;5048186;28;20484;-65
2021/12/26 04:24:02;;;;;;;3.08;1.50;;;-3.80;95.70;;;;;;5051510;28;20037;-64
2021/12/26 04:26:29;;;;;;;5.18;1.90;;;-3.90;95.60;;;;;;5062044;28;20512;-64
2021/12/26 04:28:54;;;;;;;4.50;1.75;;;-3.90;95.40;;;;;;5081931;28;20033;-64
2021/12/26 04:31:20;;;;;;;4.22;1.80;;;-3.80;96.00;;;;;;5062543;28;20121;-65
2021/12/26 04:33:47;;;;;;;5.55;1.80;;;-3.90;95.70;;;;;;5066548;28;20048;-64
2021/12/26 04:36:14;;;;;;;4.15;2.00;;;-3.90;95.50;;;;;;5058495;28;20040;-64
2021/12/26 04:38:41;;;;;;;6.95;2.03;;;-3.90;95.80;;;;;;5063612;28;20064;-64
2021/12/26 04:41:07;;;;;;;4.82;2.28;;;-3.90;95.40;;;;;;5052548;28;20049;-64
2021/12/26 04:43:36;;;;;;;4.28;1.70;;;-3.90;95.70;;;;;;5056160;28;20060;-64
2021/12/26 04:46:05;;;;;;;7.00;1.80;;;-3.80;96.10;;;;;;5057043;28;20092;-64
2021/12/26 04:48:32;;;;;;;4.57;1.83;;;-3.90;95.40;;;;;;5055595;28;20037;-64
2021/12/26 04:50:58;;;;;;;5.35;1.80;;;-3.80;95.90;;;;;;5064819;28;20587;-64
2021/12/26 04:53:23;;;;;;;5.00;1.95;;;-3.90;95.60;;;;;;5070122;28;20039;-64
2021/12/26 04:55:49;;;;;;;4.35;1.73;;;-3.90;95.40;;;;;;5052315;28;20049;-64
2021/12/26 04:58:15;;;;;;;5.30;1.95;;;-3.90;95.20;;;;;;5069144;28;20040;-64
2021/12/26 05:00:40;;;;;;;4.55;1.85;;;-3.90;95.80;;;;;;5056157;28;20066;-64
2021/12/26 05:03:08;;;;;;;4.30;1.95;;;-3.90;95.70;;;;;;5061620;28;20041;-64
2021/12/26 05:05:34;;;;;;;4.90;1.98;;;-3.90;95.90;;;;;;5061750;28;20086;-64
2021/12/26 05:07:59;;;;;;;4.72;2.05;;;-3.90;95.60;;;;;;5054950;28;20048;-64
2021/12/26 05:10:28;;;;;;;4.15;1.77;;;-4.00;95.80;;;;;;5055293;28;20041;-65
2021/12/26 05:12:58;;;;;;;3.33;1.60;;;-3.90;95.90;;;;;;5066795;28;20055;-64
2021/12/26 05:15:24;;;;;;;4.53;1.80;;;-4.00;95.30;;;;;;5058172;28;20045;-64
2021/12/26 05:17:52;;;;;;;4.65;1.80;;;-4.00;95.00;;;;;;5064075;28;20037;-65
2021/12/26 05:20:18;;;;;;;4.60;2.15;;;-4.00;96.10;;;;;;5060533;28;20183;-63
2021/12/26 05:22:45;;;;;;;5.63;2.30;;;-4.00;95.80;;;;;;5056174;28;20036;-63
2021/12/26 05:25:11;;;;;;;4.70;2.15;;;-4.00;96.40;;;;;;5058480;28;20044;-63
2021/12/26 05:27:37;;;;;;;4.50;2.00;;;-3.90;96.00;;;;;;5054861;28;20056;-63
2021/12/26 05:30:06;;;;;;;4.00;1.83;;;-3.90;96.20;;;;;;5065519;28;20043;-63
2021/12/26 05:32:32;;;;;;;5.93;2.17;;;-4.00;96.00;;;;;;5055873;28;20113;-63
2021/12/26 05:34:57;;;;;;;10.23;2.50;;;-4.10;94.20;;;;;;5050800;28;20518;-63
2021/12/26 05:37:23;;;;;;;4.40;2.10;;;-4.10;95.50;;;;;;5055111;28;20132;-63
2021/12/26 05:39:49;;;;;;;4.45;1.90;;;-4.10;96.30;;;;;;5055081;28;20590;-63
2021/12/26 05:42:16;;;;;;;4.78;2.03;;;-4.00;96.50;;;;;;5047654;28;20043;-63
2021/12/26 05:44:45;;;;;;;6.30;2.60;;;-4.00;95.90;;;;;;5054165;28;20060;-63
2021/12/26 05:47:12;;;;;;;5.07;2.03;;;-4.00;95.90;;;;;;5051415;28;20045;-63
2021/12/26 05:49:38;;;;;;;5.45;2.10;;;-4.00;96.10;;;;;;5062829;28;20376;-63
2021/12/26 05:52:04;;;;;;;4.30;2.17;;;-4.00;96.20;;;;;;5059998;28;20044;-63
2021/12/26 05:54:29;;;;;;;6.18;2.28;;;-3.90;96.40;;;;;;5064414;28;20124;-63
2021/12/26 05:56:55;;;;;;;4.03;1.98;;;-4.00;94.70;;;;;;5059159;28;20521;-63
2021/12/26 05:59:21;;;;;;;5.40;2.20;;;-4.00;95.70;;;;;;5060570;28;20044;-63
2021/12/26 06:01:46;;;;;;;6.68;2.45;;;-4.00;95.50;;;;;;5065091;28;20044;-63
2021/12/26 06:04:12;;;;;;;3.90;1.95;;;-4.00;95.30;;;;;;5061069;28;20111;-63
2021/12/26 06:06:38;;;;;;;5.57;2.17;;;-4.00;96.00;;;;;;5057562;28;20076;-63
2021/12/26 06:09:04;;;;;;;5.55;2.10;;;-4.00;94.50;;;;;;5058737;28;20080;-63
2021/12/26 06:11:30;;;;;;;4.95;2.15;;;-4.00;95.40;;;;;;5058413;28;20044;-63
2021/12/26 06:13:55;;;;;;;4.13;2.15;;;-4.00;95.20;;;;;;5060809;28;20105;-63
2021/12/26 06:16:21;;;;;;;4.65;2.00;;;-4.00;95.40;;;;;;5062804;28;20118;-63
2021/12/26 06:18:46;;;;;;;5.28;2.03;;;-4.00;95.40;;;;;;5055740;28;20037;-63
2021/12/26 06:21:12;;;;;;;5.38;2.10;;;-3.90;95.30;;;;;;5054845;28;20063;-63
2021/12/26 06:23:38;;;;;;;4.93;2.22;;;-4.00;94.50;;;;;;5054879;28;20382;-63
2021/12/26 06:26:03;;;;;;;4.10;2.00;;;-4.00;93.90;;;;;;5056069;28;20110;-63
2021/12/26 06:28:29;;;;;;;4.95;1.83;;;-4.00;94.00;;;;;;5056639;28;20047;-63
2021/12/26 06:30:54;;;;;;;5.20;2.10;;;-3.90;94.80;;;;;;5058447;28;20106;-63
2021/12/26 06:33:20;;;;;;;5.38;2.10;;;-3.90;95.10;;;;;;5063004;28;20123;-63
2021/12/26 06:35:46;;;;;;;5.30;2.10;;;-4.00;94.90;;;;;;5066505;28;20476;-63
2021/12/26 06:38:11;;;;;;;4.78;2.00;;;-3.90;94.90;;;;;;5052993;28;20037;-63
2021/12/26 06:40:37;;;;;;;4.88;2.13;;;-4.00;93.00;;;;;;5051579;28;20634;-63
2021/12/26 06:43:03;;;;;;;6.72;2.35;;;-4.00;94.00;;;;;;5056407;28;20086;-60
2021/12/26 06:45:28;;;;;;;4.38;2.13;;;-3.90;94.90;;;;;;5052306;28;20122;-62
2021/12/26 06:47:56;;;;;;;4.95;2.10;;;-3.90;94.50;;;;;;5052855;28;20055;-63
2021/12/26 06:50:22;;;;;;;6.50;2.22;;;-3.90;94.90;;;;;;5053469;28;20613;-63
2021/12/26 06:52:48;;;;;;;3.60;1.73;;;-3.90;95.30;;;;;;5050484;28;20044;-63
2021/12/26 06:55:14;;;;;;;5.80;2.15;;;-3.90;95.00;;;;;;5054555;28;20122;-63
2021/12/26 06:57:40;;;;;;;6.13;2.50;;;-3.90;94.50;;;;;;5054415;28;20447;-63
2021/12/26 07:00:12;;;;;;;7.22;2.30;;;-3.90;93.90;;;;;;5055962;28;20048;-63
2021/12/26 07:02:37;;;;;;;4.57;2.20;;;-3.90;94.00;;;;;;5052791;28;20048;-63
2021/12/26 07:05:03;;;;;;;6.00;2.20;;;-4.00;94.10;;;;;;5049861;28;20090;-63
2021/12/26 07:07:29;;;;;;;6.95;2.60;;;-3.90;95.10;;;;;;5050063;28;21747;-63
2021/12/26 07:09:55;;;;;;;5.25;2.20;;;-3.90;95.00;;;;;;5046445;28;20521;-63
2021/12/26 07:12:20;;;;;;;5.63;2.40;;;-3.90;95.10;;;;;;5050975;28;20125;-63
2021/12/26 07:14:46;;;;;;;5.68;2.63;;;-3.90;95.20;;;;;;5051586;28;20033;-63
2021/12/26 07:17:11;;;;;;;5.18;2.10;;;-3.90;94.90;;;;;;5053481;28;20048;-63
2021/12/26 07:19:38;;;;;;;5.25;2.47;;;-4.00;94.20;;;;;;5050252;28;20068;-63
2021/12/26 07:22:05;;;;;;;5.20;2.00;;;-4.00;94.70;;;;;;5051839;28;20521;-62
2021/12/26 07:24:31;;;;;;;4.65;2.10;;;-3.90;95.40;;;;;;5053284;28;20055;-63
2021/12/26 07:26:56;;;;;;;5.22;2.47;;;-3.90;95.20;;;;;;5049891;28;20037;-63
2021/12/26 07:29:22;;;;;;;6.00;2.38;;;-3.90;94.90;;;;;;5050092;28;20435;-63
2021/12/26 07:31:47;;;;;;;6.18;2.50;;;-3.90;95.40;;;;;;5044168;28;20049;-63
2021/12/26 07:34:13;;;;;;;4.53;2.30;;;-3.90;95.70;;;;;;5051858;28;20041;-63
2021/12/26 07:36:39;;;;;;;5.35;2.40;;;-3.90;95.70;;;;;;5054496;28;20085;-63
2021/12/26 07:39:05;;;;;;;4.10;2.10;;;-3.90;95.40;;;;;;5054602;28;20041;-64
2021/12/26 07:41:31;;;;;;;5.00;2.33;;;-3.90;95.60;;;;;;5049732;28;20053;-63
2021/12/26 07:43:57;;;;;;;6.28;2.30;;;-3.90;95.70;;;;;;5055765;28;20127;-62
2021/12/26 07:46:23;;;;;;;5.20;2.42;;;-3.90;95.90;;;;;;5055614;28;20041;-63
2021/12/26 07:48:49;;;;;;;5.07;2.75;;;-3.90;96.00;;;;;;5053087;28;20068;-63
2021/12/26 07:51:15;;;;;;;5.05;2.30;;;-3.90;95.70;;;;;;5052280;28;20680;-63
2021/12/26 07:53:40;;;;;;;5.30;2.60;;;-3.90;96.10;;;;;;5050660;28;20049;-63
2021/12/26 07:56:06;;;;;;;5.25;2.50;;;-3.90;96.10;;;;;;5051384;28;20147;-64
2021/12/26 07:58:34;;;;;;;6.82;3.08;;;-3.90;96.10;;;;;;5054854;28;20048;-64
2021/12/26 08:01:03;;;;;;;7.35;3.20;;;-3.80;96.00;;;;;;5050643;28;20045;-65
2021/12/26 08:03:29;;;;;;;5.75;2.70;;;-3.90;95.70;;;;;;5050528;28;20403;-63
2021/12/26 08:06:00;;;;;;;6.57;2.58;;;-3.90;96.00;;;;;;5061273;28;20048;-64
2021/12/26 08:08:26;;;;;;;5.30;2.30;;;-3.90;96.40;;;;;;5053922;28;20128;-64
2021/12/26 08:10:51;;;;;;;6.30;2.60;;;-3.90;96.20;;;;;;5061994;28;20119;-64
2021/12/26 08:13:17;;;;;;;5.68;3.00;;;-3.90;96.00;;;;;;5064695;28;20162;-63
2021/12/26 08:15:44;;;;;;;5.47;2.67;;;-3.90;96.10;;;;;;5045920;28;20041;-61
2021/12/26 08:18:09;;;;;;;6.55;2.72;;;-4.00;96.40;;;;;;5053418;28;20135;-63
2021/12/26 08:20:35;;;;;;;6.53;2.90;;;-4.00;96.50;;;;;;5069148;28;20108;-62
2021/12/26 08:23:01;;;;;;;7.57;3.00;;;-4.00;96.50;;;;;;5053948;28;20055;-63
2021/12/26 08:25:28;;;;;;;6.93;2.92;;;-4.00;96.70;;;;;;5053365;28;20045;-64
2021/12/26 08:27:54;;;;;;;6.45;2.78;;;-3.90;96.90;;;;;;5060705;28;20044;-63
2021/12/26 08:30:20;;;;;;;7.38;2.88;;;-3.90;97.20;;;;;;5057145;28;20051;-63
2021/12/26 08:32:50;;;;;;;4.80;2.58;;;-3.90;97.10;;;;;;5059146;28;20040;-64
2021/12/26 08:35:16;;;;;;;6.25;2.63;;;-3.90;97.30;;;;;;5061152;28;20040;-63
2021/12/26 08:37:42;;;;;;;8.43;2.90;;;-3.80;97.10;;;;;;5069642;28;20055;-64
2021/12/26 08:40:09;;;;;;;7.28;3.20;;;-3.80;97.00;;;;;;5067525;28;20044;-64
2021/12/26 08:42:34;;;;;;;4.93;2.53;;;-3.80;97.50;;;;;;5059839;28;20052;-64
2021/12/26 08:45:00;;;;;;;6.30;2.85;;;-3.80;97.20;;;;;;5057791;28;20045;-63
2021/12/26 08:47:26;;;;;;;6.35;2.75;;;-3.70;97.50;;;;;;5058331;28;20039;-63
2021/12/26 08:49:52;;;;;;;5.10;2.60;;;-3.70;96.80;;;;;;5063547;28;20094;-63
2021/12/26 08:52:18;;;;;;;6.13;2.83;;;-3.70;97.00;;;;;;5064687;28;20116;-63
2021/12/26 08:54:44;;;;;;;6.28;2.80;;;-3.70;97.10;;;;;;5067189;28;20387;-63
2021/12/26 08:57:10;;;;;;;7.72;2.92;;;-3.60;97.10;;;;;;5055685;28;20037;-64
2021/12/26 08:59:37;;;;;;;7.90;3.33;;;-3.60;97.40;;;;;;5061433;28;20353;-64
2021/12/26 09:02:06;;;;;;;5.82;2.75;;;-3.60;97.30;;;;;;5060500;28;20089;-63
2021/12/26 09:04:33;;;;;;;7.85;3.38;;;-3.70;96.80;;;;;;5047367;28;20049;-65
2021/12/26 09:06:59;;;;;;;5.90;2.85;;;-3.60;97.10;;;;;;5061844;28;20099;-64
2021/12/26 09:09:29;;;;;;;6.50;3.08;;;-3.50;98.10;;;;;;5065469;28;20063;-64
2021/12/26 09:11:55;;;;;;;5.82;3.10;;;-3.50;98.00;;;;;;5062151;28;20364;-64
2021/12/26 09:14:21;;;;;;;5.88;3.15;;;-3.50;97.30;;;;;;5055077;28;20049;-62
2021/12/26 09:16:46;;;;;;;5.55;3.00;;;-3.40;97.50;;;;;;5061053;28;20048;-63
2021/12/26 09:19:18;;;;;;;6.63;3.00;;;-3.50;97.50;;;;;;5056592;28;20044;-64
2021/12/26 09:21:47;;;;;;;6.32;3.45;;;-3.40;97.80;;;;;;5049306;28;20080;-64
2021/12/26 09:24:15;;;;;;;8.45;3.25;;;-3.40;97.60;;;;;;5053095;28;20040;-64
2021/12/26 09:26:41;;;;;;;7.30;3.33;;;-3.40;97.70;;;;;;5063418;28;20045;-64
2021/12/26 09:29:07;;;;;;;5.93;2.88;;;-3.40;97.30;;;;;;5059058;28;20040;-63
2021/12/26 09:31:32;;;;;;;6.97;2.90;;;-3.40;97.50;;;;;;5056499;28;20048;-63
2021/12/26 09:33:58;;;;;;;6.57;3.00;;;-3.30;97.60;;;;;;5062145;28;20365;-63
2021/12/26 09:36:24;;;;;;;5.80;3.13;;;-3.30;97.60;;;;;;5059951;28;20190;-64
2021/12/26 09:38:49;;;;;;;5.88;3.25;;;-3.20;97.70;;;;;;5055662;28;20052;-62
2021/12/26 09:41:15;;;;;;;6.22;2.85;;;-3.20;97.90;;;;;;5056875;28;20037;-62
2021/12/26 09:43:41;;;;;;;6.20;2.80;;;-3.10;97.30;;;;;;5056148;28;20168;-61
2021/12/26 09:46:07;;;;;;;6.95;3.28;;;-3.00;97.60;;;;;;5062737;28;20052;-61
2021/12/26 09:48:32;;;;;;;7.15;3.30;;;-3.00;97.50;;;;;;5061636;28;20058;-62
2021/12/26 09:50:58;;;;;;;5.43;3.08;;;-2.90;97.60;;;;;;5055603;28;20044;-62
2021/12/26 09:53:23;;;;;;;7.05;3.35;;;-2.80;97.30;;;;;;5064346;28;20052;-62
2021/12/26 09:55:50;;;;;;;7.03;3.33;;;-2.70;97.50;;;;;;5053939;28;20605;-63
2021/12/26 09:58:18;;;;;;;7.32;3.22;;;-2.60;97.90;;;;;;5052807;28;20115;-63
2021/12/26 10:00:47;;;;;;;5.82;3.13;;;-2.50;97.80;;;;;;5051245;28;20049;-62
2021/12/26 10:03:30;;;;;;;5.55;2.83;;;-2.40;97.70;;;;;;5058197;28;20406;-62
2021/12/26 10:05:59;;;;;;;5.60;3.00;;;-2.30;97.70;;;;;;5052320;28;20056;-62
2021/12/26 10:08:26;;;;;;;5.80;3.08;;;-2.20;97.70;;;;;;5052689;28;20045;-63
2021/12/26 10:11:05;;;;;;;8.05;2.95;;;-2.20;97.80;;;;;;5061016;28;20127;-63
2021/12/26 10:13:50;;;;;;;6.13;3.10;;;-2.10;96.90;;;;;;5063397;28;20064;-63
2021/12/26 10:16:18;;;;;;;6.45;3.22;;;-2.00;97.20;;;;;;5051636;28;20152;-63
2021/12/26 10:18:45;;;;;;;6.18;3.10;;;-2.00;96.40;;;;;;5051584;28;20038;-63
2021/12/26 10:21:24;;;;;;;6.05;3.20;;;-1.90;96.70;;;;;;5055592;28;20040;-63
2021/12/26 10:23:50;;;;;;;5.97;3.10;;;-2.00;95.60;;;;;;5054430;28;20044;-63
2021/12/26 10:26:24;;;;;;;8.07;3.20;;;-1.90;96.20;;;;;;5056031;28;20119;-63
2021/12/26 10:29:15;;;;;;;7.30;3.55;;;-1.90;96.40;;;;;;5055187;28;20052;-63
2021/12/26 10:31:48;;;;;;;6.38;3.22;;;-1.90;96.50;;;;;;5051714;28;20079;-63
2021/12/26 10:34:17;;;;;;;6.28;3.25;;;-1.90;96.70;;;;;;5061993;28;20380;-63
2021/12/26 10:36:46;;;;;;;7.03;3.47;;;-1.80;96.80;;;;;;5052009;28;20079;-64
2021/12/26 10:39:17;;;;;;;6.65;3.35;;;-1.80;96.30;;;;;;5062981;28;20445;-64
2021/12/26 10:42:13;;;;;;;7.43;3.60;;;-1.90;96.30;;;;;;5058253;28;20067;-64
2021/12/26 10:44:45;;;;;;;7.57;3.40;;;-1.90;96.80;;;;;;5048601;28;20060;-64
2021/12/26 10:47:14;;;;;;;7.13;3.40;;;-1.90;97.50;;;;;;5060704;28;20072;-63
2021/12/26 10:49:57;;;;;;;6.72;3.42;;;-1.90;97.10;;;;;;5062141;28;20055;-61
2021/12/26 10:52:24;;;;;;;6.65;3.15;;;-1.90;97.30;;;;;;5049520;28;20056;-62
2021/12/26 10:55:12;;;;;;;6.90;3.55;;;-1.90;97.30;;;;;;5047039;28;20037;-62
2021/12/26 10:57:39;;;;;;;7.18;3.55;;;-2.00;96.70;;;;;;5053953;28;20460;-62
2021/12/26 11:00:12;;;;;;;7.28;3.65;;;-2.00;97.30;;;;;;5049536;28;20052;-63
2021/12/26 11:02:41;;;;;;;7.53;3.40;;;-1.90;97.70;;;;;;5064471;28;20040;-64
2021/12/26 11:05:10;;;;;;;8.05;3.30;;;-1.90;97.80;;;;;;5063582;28;20074;-65
2021/12/26 11:07:49;;;;;;;6.65;3.72;;;-1.90;97.90;;;;;;5058998;28;20106;-64
2021/12/26 11:10:31;;;;;;;7.38;3.78;;;-1.90;97.80;;;;;;5058533;28;20069;-63
2021/12/26 11:13:00;;;;;;;7.75;3.67;;;-1.80;98.10;;;;;;5059484;28;20159;-63
2021/12/26 11:15:45;;;;;;;7.53;3.75;;;-1.80;98.40;;;;;;5059945;28;20067;-63
2021/12/26 11:18:14;;;;;;;6.75;3.55;;;-1.80;98.30;;;;;;5048014;28;20057;-63
2021/12/26 11:20:43;;;;;;;6.95;3.65;;;-1.80;98.10;;;;;;5055784;28;20067;-64
2021/12/26 11:23:18;;;;;;;6.95;3.60;;;-1.70;98.90;;;;;;5054728;28;20041;-64
2021/12/26 11:25:54;;;;;;;8.13;4.05;;;-1.70;98.40;;;;;;5054963;28;20045;-63
2021/12/26 11:28:26;;;;;;;7.47;3.95;;;-1.70;98.60;;;;;;5054018;28;20036;-63
2021/12/26 11:30:58;;;;;;;9.35;4.47;;;-1.70;98.60;;;;;;5064658;28;20048;-64
2021/12/26 11:33:24;;;;;;;9.73;4.00;;;-1.60;98.60;;;;;;5064308;28;20095;-64
2021/12/26 11:35:52;;;;;;;8.65;3.97;;;-1.60;98.70;;;;;;5053116;28;20037;-64
2021/12/26 11:38:22;;;;;;;6.90;4.05;;;-1.60;98.70;;;;;;5048246;28;20048;-62
2021/12/26 11:40:50;;;;;;;7.75;4.20;;;-1.60;99.00;;;;;;5046426;28;20508;-63
2021/12/26 11:43:43;;;;;;;7.05;3.80;;;-1.50;99.20;;;;;;5059098;28;20037;-63
2021/12/26 11:46:54;;;;;;;6.70;3.70;;;-1.50;98.90;;;;;;5058265;28;20124;-63
2021/12/26 11:49:43;;;;;;;7.95;4.35;;;-1.50;98.80;;;;;;5053298;28;20057;-63
2021/12/26 11:52:46;;;;;;;7.35;3.90;;;-1.50;99.10;;;;;;5048532;28;20037;-64
2021/12/26 11:55:14;;;;;;;7.80;4.25;;;-1.50;99.60;;;;;;5053756;28;20057;-64
2021/12/26 11:57:43;;;;;;;8.63;4.05;;;-1.50;99.50;;;;;;5054871;28;20102;-65
2021/12/26 12:00:37;;;;;;;9.13;4.22;;;-1.50;99.60;;;;;;5050641;28;20463;-65
2021/12/26 12:03:06;;;;;;;6.72;3.78;;;-1.50;99.90;;;;;;5055833;28;20103;-64
2021/12/26 12:05:36;;;;;;;7.88;4.00;;;-1.40;99.40;;;;;;5061659;28;20040;-65
2021/12/26 12:08:09;;;;;;;8.55;4.22;;;-1.40;99.60;;;;;;5035723;28;20056;-64
2021/12/26 12:10:35;;;;;;;7.13;4.10;;;-1.40;99.60;;;;;;5050628;28;20049;-65
2021/12/26 12:13:03;;;;;;;7.53;3.97;;;-1.40;99.90;;;;;;5057487;28;20423;-66
2021/12/26 12:15:52;;;;;;;7.90;4.20;;;-1.40;99.90;;;;;;5055978;28;20456;-63
2021/12/26 12:18:30;;;;;;;8.23;4.00;;;-1.30;99.90;;;;;;5056836;28;20041;-66
2021/12/26 12:21:16;;;;;;;9.30;4.25;;;-1.30;99.90;;;;;;5054225;28;20048;-64
2021/12/26 12:24:19;;;;;;;7.90;4.10;;;-1.30;99.90;;;;;;5059765;28;20052;-65
2021/12/26 12:26:56;;;;;;;8.45;4.47;;;-1.30;99.90;;;;;;5052256;28;20044;-66
2021/12/26 12:29:21;;;;;;;7.95;4.07;;;-1.20;99.90;;;;;;5050551;28;20106;-66
2021/12/26 12:31:48;;;;;;;8.43;4.05;;;-1.20;99.90;;;;;;5054130;28;20061;-65
2021/12/26 12:34:14;;;;;;;7.85;4.25;;;-1.30;99.90;;;;;;5034045;28;20057;-64
2021/12/26 12:36:43;;;;;;;8.25;4.20;;;-1.20;99.90;;;;;;5056218;28;20033;-64
2021/12/26 12:39:10;;;;;;;8.65;4.68;;;-1.20;99.90;;;;;;5048202;28;20452;-66
2021/12/26 12:41:39;;;;;;;8.43;4.38;;;-1.20;99.90;;;;;;5052569;28;20078;-68
2021/12/26 12:44:27;;;;;;;7.45;4.18;;;-1.10;99.90;;;;;;5052168;28;20113;-66
2021/12/26 12:47:08;;;;;;;9.18;4.70;;;-1.00;99.90;;;;;;5062671;28;20096;-67
2021/12/26 12:49:44;;;;;;;9.38;4.72;;;-1.00;99.90;;;;;;5039438;28;20067;-66
2021/12/26 12:52:45;;;;;;;8.80;4.32;;;-1.00;99.90;;;;;;5054500;28;20452;-67
2021/12/26 12:55:17;;;;;;;8.63;4.18;;;-1.00;99.90;;;;;;5055409;28;20052;-68
2021/12/26 12:57:48;;;;;;;22.40;13.70;;;-1.00;99.90;;;;;;5054736;28;20045;-68